Time;durP1;ratioP1;P1;durP2;ratioP2;P2;SDS_P1;SDS_P2;PMS_P1;PMS_P2;Temp;Humidity;BMP_temperature;BMP_pressure;BME280_temperature;BME280_humidity;BME280_pressure;Samples;Min_cycle;Max_cycle;Signal;HPM_P1;HPM_P2
2022/06/18 00:00:40;;;;;;;9.60;4.22;;;;;;;;;;5044441;28;20486;-71
2022/06/18 00:03:05;;;;;;;5.37;4.20;;;;;;;;;;5040746;28;20037;-70
2022/06/18 00:05:32;;;;;;;5.37;3.63;;;;;;;;;;5044214;28;20285;-70
2022/06/18 00:07:57;;;;;;;7.25;4.55;;;;;;;;;;5037367;28;20549;-70
2022/06/18 00:10:24;;;;;;;4.83;4.23;;;;;;;;;;5043299;28;20430;-71
2022/06/18 00:15:35;;;;;;;7.30;4.57;;;;;;;;;;5044017;28;20028;-71
2022/06/18 00:18:01;;;;;;;6.20;4.55;;;;;;;;;;5045203;28;20025;-71
2022/06/18 00:20:28;;;;;;;4.63;4.13;;;;;;;;;;5024986;28;20566;-71
2022/06/18 00:22:55;;;;;;;5.60;4.53;;;;;;;;;;5045512;28;20104;-71
2022/06/18 00:25:34;;;;;;;5.25;4.40;;;;;;;;;;5028094;28;20017;-72
2022/06/18 00:28:00;;;;;;;5.05;4.53;;;;;;;;;;5044003;28;20037;-72
2022/06/18 00:30:27;;;;;;;5.78;5.07;;;;;;;;;;5039213;28;20040;-73
2022/06/18 00:32:52;;;;;;;5.72;5.07;;;;;;;;;;5043652;28;20025;-72
2022/06/18 00:35:18;;;;;;;5.60;5.00;;;;;;;;;;5041010;28;20502;-72
2022/06/18 00:37:43;;;;;;;8.00;5.20;;;;;;;;;;5038419;28;20606;-72
2022/06/18 00:40:38;;;;;;;7.32;5.13;;;;;;;;;;5045910;28;20086;-72
2022/06/18 00:43:03;;;;;;;;;;;;;;;;;;5021261;28;20037;-72
2022/06/18 00:45:29;;;;;;;8.18;5.03;;;;;;;;;;5038749;28;19937;-71
2022/06/18 00:48:11;;;;;;;7.20;4.75;;;;;;;;;;5037818;28;20084;-69
2022/06/18 00:50:54;;;;;;;5.65;5.07;;;;;;;;;;5033344;28;20025;-70
2022/06/18 00:53:45;;;;;;;6.80;4.93;;;;;;;;;;5036939;28;20044;-72
2022/06/18 00:56:14;;;;;;;8.52;5.15;;;;;;;;;;5030770;28;20029;-74
2022/06/18 00:58:43;;;;;;;5.60;5.10;;;;;;;;;;5035630;28;20063;-73
2022/06/18 01:01:11;;;;;;;6.30;5.70;;;;;;;;;;5034374;28;20472;-73
2022/06/18 01:03:38;;;;;;;7.07;5.20;;;;;;;;;;5036023;28;20025;-74
2022/06/18 01:06:09;;;;;;;6.68;5.63;;;;;;;;;;5038503;28;20021;-71
2022/06/18 01:08:34;;;;;;;6.13;5.50;;;;;;;;;;5046627;28;20024;-72
2022/06/18 01:11:01;;;;;;;8.23;5.20;;;;;;;;;;5025698;28;20017;-72
2022/06/18 01:13:31;;;;;;;5.97;5.25;;;;;;;;;;5042922;28;20025;-74
2022/06/18 01:15:57;;;;;;;6.32;5.70;;;;;;;;;;5046762;28;20396;-73
2022/06/18 01:18:22;;;;;;;7.68;5.28;;;;;;;;;;5041210;28;20029;-73
2022/06/18 01:21:08;;;;;;;6.20;5.60;;;;;;;;;;5022876;28;20127;-73
2022/06/18 01:23:36;;;;;;;6.95;5.32;;;;;;;;;;5044497;28;20037;-74
2022/06/18 01:26:02;;;;;;;9.00;5.30;;;;;;;;;;5039030;28;20032;-73
2022/06/18 01:28:27;;;;;;;7.60;6.00;;;;;;;;;;5042546;28;20025;-74
2022/06/18 01:30:53;;;;;;;8.40;5.68;;;;;;;;;;5028663;28;20040;-74
2022/06/18 01:33:18;;;;;;;6.63;5.60;;;;;;;;;;5042504;28;20523;-74
2022/06/18 01:35:46;;;;;;;8.05;6.13;;;;;;;;;;5047834;28;20013;-73
2022/06/18 01:38:12;;;;;;;7.35;5.82;;;;;;;;;;5026972;28;20017;-73
2022/06/18 01:40:48;;;;;;;11.40;6.22;;;;;;;;;;5044629;28;20337;-73
2022/06/18 01:43:16;;;;;;;10.10;5.75;;;;;;;;;;5047255;28;20037;-73
2022/06/18 01:45:42;;;;;;;10.02;5.85;;;;;;;;;;5029207;28;20064;-73
2022/06/18 01:48:14;;;;;;;6.40;5.80;;;;;;;;;;5033688;28;20056;-74
2022/06/18 01:50:43;;;;;;;6.60;5.80;;;;;;;;;;5042696;28;20026;-74
2022/06/18 01:53:18;;;;;;;6.15;5.55;;;;;;;;;;5040693;28;20025;-74
2022/06/18 01:55:45;;;;;;;7.72;5.85;;;;;;;;;;5039236;28;20013;-73
2022/06/18 01:58:19;;;;;;;7.03;5.97;;;;;;;;;;5041042;28;20023;-73
2022/06/18 02:00:47;;;;;;;7.40;6.70;;;;;;;;;;5042672;28;20009;-73
2022/06/18 02:03:12;;;;;;;9.80;5.97;;;;;;;;;;5043468;28;20037;-72
2022/06/18 02:05:37;;;;;;;9.50;6.40;;;;;;;;;;5039295;28;20031;-71
2022/06/18 02:08:03;;;;;;;8.38;6.25;;;;;;;;;;5040553;28;20577;-72
2022/06/18 02:10:31;;;;;;;8.02;7.22;;;;;;;;;;5038373;28;20056;-72
2022/06/18 02:12:58;;;;;;;8.02;6.28;;;;;;;;;;5023251;28;20925;-72
2022/06/18 02:15:26;;;;;;;8.75;6.50;;;;;;;;;;5036805;28;20045;-73
2022/06/18 02:17:51;;;;;;;9.75;6.30;;;;;;;;;;5040037;28;20026;-71
2022/06/18 02:20:20;;;;;;;12.35;6.68;;;;;;;;;;5035769;28;20033;-73
2022/06/18 02:22:47;;;;;;;6.72;6.13;;;;;;;;;;5043185;28;20694;-73
2022/06/18 02:25:13;;;;;;;11.02;6.93;;;;;;;;;;5038681;28;20037;-74
2022/06/18 02:27:39;;;;;;;8.48;6.40;;;;;;;;;;5034300;28;20459;-73
2022/06/18 02:30:04;;;;;;;10.23;7.03;;;;;;;;;;5037482;28;20390;-72
2022/06/18 02:32:45;;;;;;;11.65;7.97;;;;;;;;;;5040102;28;20385;-72
2022/06/18 02:35:14;;;;;;;10.07;7.15;;;;;;;;;;5036296;28;20109;-72
2022/06/18 02:37:40;;;;;;;7.88;7.03;;;;;;;;;;5039112;28;20467;-72
2022/06/18 02:40:14;;;;;;;8.18;7.28;;;;;;;;;;5038275;28;20419;-73
2022/06/18 02:42:39;;;;;;;9.00;6.78;;;;;;;;;;5036939;28;20041;-73
2022/06/18 02:45:05;;;;;;;7.47;6.70;;;;;;;;;;5035918;28;20177;-72
2022/06/18 02:47:30;;;;;;;8.80;7.40;;;;;;;;;;5037878;28;20043;-73
2022/06/18 02:50:05;;;;;;;7.40;6.60;;;;;;;;;;5037651;28;20379;-73
2022/06/18 02:52:35;;;;;;;9.57;7.05;;;;;;;;;;5022146;28;20114;-74
2022/06/18 02:55:07;;;;;;;9.02;6.65;;;;;;;;;;5012841;28;20126;-74
2022/06/18 02:57:32;;;;;;;10.68;7.00;;;;;;;;;;5038572;28;20032;-73
2022/06/18 02:59:57;;;;;;;7.95;6.50;;;;;;;;;;5035772;28;20021;-74
2022/06/18 03:02:22;;;;;;;8.00;7.18;;;;;;;;;;5020625;28;20024;-73
2022/06/18 03:04:47;;;;;;;9.40;7.07;;;;;;;;;;5038260;28;20056;-73
2022/06/18 03:07:13;;;;;;;9.55;7.82;;;;;;;;;;5039752;28;20028;-73
2022/06/18 03:12:06;;;;;;;8.95;7.45;;;;;;;;;;5039160;28;20499;-73
2022/06/18 03:12:23;;;;;;;12.50;7.07;;;;;;;;;;5037531;28;20043;-73
2022/06/18 03:14:48;;;;;;;8.23;7.33;;;;;;;;;;5039142;28;20390;-74
2022/06/18 03:17:13;;;;;;;10.10;7.23;;;;;;;;;;5034055;28;20766;-73
2022/06/18 03:19:44;;;;;;;15.60;7.50;;;;;;;;;;5034945;28;20815;-72
2022/06/18 03:22:14;;;;;;;8.23;7.43;;;;;;;;;;5039772;28;20033;-72
2022/06/18 03:24:42;;;;;;;7.57;6.80;;;;;;;;;;5019930;28;22626;-74
2022/06/18 03:27:09;;;;;;;11.38;6.97;;;;;;;;;;5037935;28;20040;-74
2022/06/18 03:29:34;;;;;;;10.90;6.18;;;;;;;;;;5023713;28;20035;-74
2022/06/18 03:32:00;;;;;;;10.43;7.33;;;;;;;;;;5033266;28;20033;-74
2022/06/18 03:34:25;;;;;;;10.80;7.40;;;;;;;;;;5019622;28;20017;-72
2022/06/18 03:36:50;;;;;;;14.93;7.47;;;;;;;;;;5032505;28;20085;-74
2022/06/18 03:39:17;;;;;;;8.37;7.20;;;;;;;;;;5034897;28;20767;-73
2022/06/18 03:41:42;;;;;;;8.02;6.95;;;;;;;;;;5042330;28;20389;-74
2022/06/18 03:44:07;;;;;;;12.13;6.60;;;;;;;;;;5021552;28;20086;-73
2022/06/18 03:46:35;;;;;;;42.30;9.55;;;;;;;;;;5032252;28;20037;-73
2022/06/18 03:49:01;;;;;;;16.15;7.95;;;;;;;;;;5035734;28;20036;-73
2022/06/18 03:51:27;;;;;;;8.90;7.97;;;;;;;;;;5034996;28;20070;-73
2022/06/18 03:53:52;;;;;;;10.85;8.55;;;;;;;;;;5036951;28;20021;-73
2022/06/18 03:56:19;;;;;;;10.55;8.38;;;;;;;;;;5036387;28;22059;-72
2022/06/18 03:58:45;;;;;;;14.48;8.50;;;;;;;;;;5041011;28;20021;-72
2022/06/18 04:01:12;;;;;;;15.55;9.02;;;;;;;;;;5030859;28;20032;-72
2022/06/18 04:03:37;;;;;;;10.13;8.95;;;;;;;;;;5037764;28;20304;-71
2022/06/18 04:06:02;;;;;;;12.70;9.03;;;;;;;;;;5035351;28;20041;-71
2022/06/18 04:08:28;;;;;;;11.02;9.43;;;;;;;;;;5041012;28;20663;-71
2022/06/18 04:10:53;;;;;;;11.97;9.07;;;;;;;;;;5039715;28;20029;-71
2022/06/18 04:13:18;;;;;;;14.23;9.27;;;;;;;;;;5041494;28;20316;-71
2022/06/18 04:15:45;;;;;;;16.50;10.20;;;;;;;;;;5039062;28;20021;-71
2022/06/18 04:18:12;;;;;;;14.48;9.85;;;;;;;;;;5024768;28;20014;-71
2022/06/18 04:20:38;;;;;;;13.15;10.52;;;;;;;;;;5041503;28;20570;-71
2022/06/18 04:23:04;;;;;;;14.07;10.35;;;;;;;;;;5023846;28;20120;-71
2022/06/18 04:25:29;;;;;;;15.05;11.30;;;;;;;;;;5037066;28;20374;-70
2022/06/18 04:27:57;;;;;;;16.23;11.85;;;;;;;;;;5035160;28;20044;-71
2022/06/18 04:30:22;;;;;;;14.60;12.27;;;;;;;;;;5035815;28;20112;-70
2022/06/18 04:32:47;;;;;;;16.17;12.45;;;;;;;;;;5035839;28;20021;-71
2022/06/18 04:35:13;;;;;;;18.20;12.60;;;;;;;;;;5037210;28;20114;-71
2022/06/18 04:37:38;;;;;;;18.60;12.70;;;;;;;;;;5034177;28;20400;-71
2022/06/18 04:40:04;;;;;;;16.27;13.27;;;;;;;;;;5036736;28;20265;-71
2022/06/18 04:42:29;;;;;;;17.27;11.77;;;;;;;;;;5035654;28;20025;-72
2022/06/18 04:44:54;;;;;;;19.53;12.10;;;;;;;;;;5036889;28;20032;-71
2022/06/18 04:47:19;;;;;;;15.67;13.47;;;;;;;;;;5023640;28;20021;-71
2022/06/18 04:49:45;;;;;;;17.92;11.75;;;;;;;;;;5045497;28;20265;-71
2022/06/18 04:52:10;;;;;;;13.95;12.13;;;;;;;;;;5023834;28;20041;-71
2022/06/18 04:54:35;;;;;;;17.27;12.05;;;;;;;;;;5044068;28;20472;-72
2022/06/18 04:57:00;;;;;;;16.87;12.77;;;;;;;;;;5042649;28;20055;-71
2022/06/18 04:59:26;;;;;;;19.87;13.20;;;;;;;;;;5040916;28;20025;-72
2022/06/18 05:01:59;;;;;;;14.83;13.03;;;;;;;;;;5023550;28;20278;-71
2022/06/18 05:04:24;;;;;;;16.42;13.63;;;;;;;;;;5039247;28;20044;-71
2022/06/18 05:06:49;;;;;;;23.33;14.50;;;;;;;;;;5040177;28;20033;-71
2022/06/18 05:09:14;;;;;;;19.50;14.40;;;;;;;;;;5042054;28;20654;-71
2022/06/18 05:11:40;;;;;;;18.13;13.90;;;;;;;;;;5041438;28;20078;-71
2022/06/18 05:14:05;;;;;;;18.17;14.05;;;;;;;;;;5025123;28;20029;-71
2022/06/18 05:16:30;;;;;;;20.77;15.13;;;;;;;;;;5038981;28;20071;-71
2022/06/18 05:18:56;;;;;;;19.03;14.70;;;;;;;;;;5041037;28;20033;-71
2022/06/18 05:21:21;;;;;;;16.95;14.55;;;;;;;;;;5039363;28;20475;-71
2022/06/18 05:23:46;;;;;;;17.40;13.57;;;;;;;;;;5021407;28;20017;-71
2022/06/18 05:26:13;;;;;;;17.75;14.00;;;;;;;;;;5025563;28;20665;-71
2022/06/18 05:28:38;;;;;;;18.05;14.30;;;;;;;;;;5039794;28;20029;-71
2022/06/18 05:31:03;;;;;;;21.47;13.80;;;;;;;;;;5035551;28;20353;-70
2022/06/18 05:33:28;;;;;;;19.90;13.07;;;;;;;;;;5038480;28;20029;-71
2022/06/18 05:35:53;;;;;;;18.23;13.77;;;;;;;;;;5044626;28;20742;-72
2022/06/18 05:38:19;;;;;;;18.33;12.80;;;;;;;;;;5037787;28;20021;-70
2022/06/18 05:40:45;;;;;;;20.75;13.57;;;;;;;;;;5019721;28;20025;-72
2022/06/18 05:43:10;;;;;;;17.77;13.15;;;;;;;;;;5041018;28;20037;-71
2022/06/18 05:45:36;;;;;;;15.90;12.13;;;;;;;;;;5024799;28;20376;-72
2022/06/18 05:48:01;;;;;;;24.60;12.18;;;;;;;;;;5038856;28;20037;-71
2022/06/18 05:50:26;;;;;;;14.85;11.40;;;;;;;;;;5041256;28;20143;-71
2022/06/18 05:52:51;;;;;;;15.30;10.93;;;;;;;;;;5044375;28;20119;-73
2022/06/18 05:55:20;;;;;;;22.30;11.67;;;;;;;;;;5041780;28;20029;-71
2022/06/18 05:57:50;;;;;;;20.60;11.07;;;;;;;;;;5042835;28;20140;-71
2022/06/18 06:00:16;;;;;;;17.77;10.85;;;;;;;;;;5022387;28;20021;-73
2022/06/18 06:02:42;;;;;;;15.07;10.77;;;;;;;;;;5023252;28;20376;-71
2022/06/18 06:05:07;;;;;;;22.52;11.60;;;;;;;;;;5022471;28;20035;-71
2022/06/18 06:07:32;;;;;;;16.90;9.80;;;;;;;;;;5036085;28;20455;-71
2022/06/18 06:12:42;;;;;;;11.82;9.07;;;;;;;;;;5037108;28;20828;-72
2022/06/18 06:15:07;;;;;;;15.57;9.43;;;;;;;;;;5041494;28;20025;-71
2022/06/18 06:17:33;;;;;;;14.00;9.68;;;;;;;;;;5040200;28;20017;-71
2022/06/18 06:20:03;;;;;;;16.88;10.57;;;;;;;;;;5034756;28;20029;-71
2022/06/18 06:22:28;;;;;;;17.45;9.68;;;;;;;;;;5024367;28;20108;-72
2022/06/18 06:24:53;;;;;;;18.30;10.27;;;;;;;;;;5048144;28;20052;-71
2022/06/18 06:27:18;;;;;;;16.20;9.77;;;;;;;;;;5038508;28;20339;-71
2022/06/18 06:29:44;;;;;;;13.63;8.67;;;;;;;;;;5027128;28;20025;-72
2022/06/18 06:32:09;;;;;;;16.33;9.80;;;;;;;;;;5040345;28;20029;-71
2022/06/18 06:34:34;;;;;;;17.03;9.27;;;;;;;;;;5042295;28;20146;-73
2022/06/18 06:36:59;;;;;;;17.65;9.32;;;;;;;;;;5046724;28;20025;-74
2022/06/18 06:39:25;;;;;;;19.42;9.15;;;;;;;;;;5041882;28;20031;-74
2022/06/18 06:41:50;;;;;;;16.65;9.38;;;;;;;;;;5026474;28;20047;-74
2022/06/18 06:44:15;;;;;;;16.37;10.03;;;;;;;;;;5040703;28;20550;-74
2022/06/18 06:46:40;;;;;;;14.80;10.20;;;;;;;;;;5027241;28;20040;-71
2022/06/18 06:49:05;;;;;;;16.63;10.73;;;;;;;;;;5026174;28;20041;-73
2022/06/18 06:51:32;;;;;;;11.57;9.20;;;;;;;;;;5038304;28;20677;-72
2022/06/18 06:53:57;;;;;;;18.60;9.73;;;;;;;;;;5039427;28;20028;-74
2022/06/18 06:59:07;;;;;;;19.70;10.30;;;;;;;;;;5044114;28;20094;-75
2022/06/18 07:01:34;;;;;;;17.20;11.57;;;;;;;;;;5042892;28;20514;-72
2022/06/18 07:03:59;;;;;;;17.00;11.30;;;;;;;;;;5043291;28;20021;-72
2022/06/18 07:06:24;;;;;;;17.52;11.60;;;;;;;;;;5032611;28;20347;-73
2022/06/18 07:08:50;;;;;;;18.00;10.02;;;;;;;;;;5034106;28;20395;-74
2022/06/18 07:11:15;;;;;;;16.85;10.45;;;;;;;;;;5041292;28;20028;-74
2022/06/18 07:13:40;;;;;;;19.73;10.00;;;;;;;;;;5048917;28;20055;-75
2022/06/18 07:16:06;;;;;;;21.13;10.95;;;;;;;;;;5046092;28;20035;-71
2022/06/18 07:18:33;;;;;;;15.25;10.02;;;;;;;;;;5040837;28;20423;-72
2022/06/18 07:21:03;;;;;;;19.80;10.07;;;;;;;;;;5040149;28;20780;-72
2022/06/18 07:23:28;;;;;;;21.65;10.15;;;;;;;;;;5027793;28;20083;-71
2022/06/18 07:25:53;;;;;;;20.20;10.00;;;;;;;;;;5039048;28;20442;-71
2022/06/18 07:28:22;;;;;;;17.60;9.97;;;;;;;;;;5041812;28;20140;-75
2022/06/18 07:30:47;;;;;;;16.67;9.73;;;;;;;;;;5042949;28;20044;-74
2022/06/18 07:33:14;;;;;;;19.50;11.27;;;;;;;;;;5044261;28;20025;-72
2022/06/18 07:35:39;;;;;;;19.08;10.05;;;;;;;;;;5039474;28;20029;-71
2022/06/18 07:38:04;;;;;;;17.40;10.30;;;;;;;;;;5035310;28;20025;-70
2022/06/18 07:40:33;;;;;;;18.90;10.30;;;;;;;;;;5042986;28;20033;-75
2022/06/18 07:42:59;;;;;;;16.92;10.18;;;;;;;;;;5043256;28;20118;-72
2022/06/18 07:45:24;;;;;;;19.25;9.82;;;;;;;;;;5025617;28;20466;-72
2022/06/18 07:47:51;;;;;;;18.58;10.32;;;;;;;;;;5036253;28;20550;-73
2022/06/18 07:50:17;;;;;;;18.55;9.45;;;;;;;;;;5039076;28;20371;-74
2022/06/18 07:52:44;;;;;;;20.08;9.60;;;;;;;;;;5037356;28;20151;-73
2022/06/18 07:55:26;;;;;;;16.60;9.52;;;;;;;;;;5036755;28;20528;-73
2022/06/18 07:57:51;;;;;;;16.35;9.15;;;;;;;;;;5033097;28;20375;-73
2022/06/18 08:00:19;;;;;;;15.38;10.10;;;;;;;;;;5040915;28;20032;-68
2022/06/18 08:02:44;;;;;;;16.20;10.60;;;;;;;;;;5036889;28;20025;-76
2022/06/18 08:05:11;;;;;;;15.50;8.82;;;;;;;;;;5034074;28;20461;-69
2022/06/18 08:07:36;;;;;;;16.10;9.88;;;;;;;;;;5037486;28;20021;-75
2022/06/18 08:10:02;;;;;;;18.73;8.65;;;;;;;;;;5036006;28;20029;-75
2022/06/18 08:12:27;;;;;;;17.23;9.70;;;;;;;;;;5034565;28;20681;-76
2022/06/18 08:14:52;;;;;;;18.87;10.83;;;;;;;;;;5040586;28;20100;-75
2022/06/18 08:17:17;;;;;;;14.60;9.50;;;;;;;;;;5039681;28;20349;-76
2022/06/18 08:19:42;;;;;;;17.45;11.02;;;;;;;;;;5041541;28;20041;-73
2022/06/18 08:22:08;;;;;;;18.50;10.47;;;;;;;;;;5043804;28;20030;-74
2022/06/18 08:24:33;;;;;;;16.47;9.03;;;;;;;;;;5042876;28;20025;-76
2022/06/18 08:26:59;;;;;;;16.63;10.23;;;;;;;;;;5044120;28;20387;-74
2022/06/18 08:29:24;;;;;;;16.35;10.57;;;;;;;;;;5048149;28;20319;-72
2022/06/18 08:31:50;;;;;;;17.50;9.52;;;;;;;;;;5048604;28;20112;-74
2022/06/18 08:34:15;;;;;;;14.70;9.30;;;;;;;;;;5047247;28;20025;-76
2022/06/18 08:36:41;;;;;;;16.63;10.32;;;;;;;;;;5049227;28;20017;-74
2022/06/18 08:39:06;;;;;;;27.25;10.50;;;;;;;;;;5049662;28;20151;-73
2022/06/18 08:41:50;;;;;;;12.38;9.13;;;;;;;;;;5044706;28;20025;-74
2022/06/18 08:44:15;;;;;;;;;;;;;;;;;;5031627;28;20547;-76
2022/06/18 08:46:43;;;;;;;18.92;9.60;;;;;;;;;;5029735;28;20335;-77
2022/06/18 08:49:15;;;;;;;16.00;9.70;;;;;;;;;;5035097;28;20025;-78
2022/06/18 08:52:12;;;;;;;15.82;10.30;;;;;;;;;;5036046;28;20063;-74
2022/06/18 08:54:37;;;;;;;16.23;9.45;;;;;;;;;;5012032;28;20033;-79
2022/06/18 08:57:12;;;;;;;18.30;9.43;;;;;;;;;;5051033;28;20032;-74
2022/06/18 08:59:55;;;;;;;18.85;9.85;;;;;;;;;;5048547;28;20154;-79
2022/06/18 09:02:37;;;;;;;18.08;11.65;;;;;;;;;;5025388;28;20119;-80
2022/06/18 09:05:13;;;;;;;21.75;11.57;;;;;;;;;;5046228;28;20107;-75
2022/06/18 09:07:57;;;;;;;18.75;11.52;;;;;;;;;;5028892;28;20832;-76
2022/06/18 09:10:36;;;;;;;20.85;9.63;;;;;;;;;;5044510;28;20075;-74
2022/06/18 09:13:06;;;;;;;21.30;10.25;;;;;;;;;;5041314;28;20075;-77
2022/06/18 09:15:34;;;;;;;16.90;9.70;;;;;;;;;;5036283;28;20078;-78
2022/06/18 09:18:06;;;;;;;15.50;9.95;;;;;;;;;;5027052;28;20028;-79
2022/06/18 09:20:34;;;;;;;14.10;9.02;;;;;;;;;;5040013;28;20542;-79
2022/06/18 09:23:05;;;;;;;15.45;9.55;;;;;;;;;;5042109;28;20107;-78
2022/06/18 09:25:33;;;;;;;20.58;9.25;;;;;;;;;;5026492;28;20537;-80
2022/06/18 09:28:06;;;;;;;18.65;10.38;;;;;;;;;;5039956;28;20652;-79
2022/06/18 09:30:41;;;;;;;17.20;10.45;;;;;;;;;;5042803;28;20034;-79
2022/06/18 09:33:06;;;;;;;14.90;10.35;;;;;;;;;;5041734;28;20032;-79
2022/06/18 09:35:35;;;;;;;20.70;10.32;;;;;;;;;;5044027;28;20021;-77
2022/06/18 09:38:20;;;;;;;20.10;11.40;;;;;;;;;;5044081;28;20021;-77
2022/06/18 09:40:52;;;;;;;22.20;11.15;;;;;;;;;;5042736;28;20033;-76
2022/06/18 09:43:37;;;;;;;20.83;11.27;;;;;;;;;;5041513;28;20025;-77
2022/06/18 09:46:05;;;;;;;18.58;10.70;;;;;;;;;;5041917;28;20036;-79
2022/06/18 09:48:30;;;;;;;19.50;11.43;;;;;;;;;;5021577;28;20132;-74
2022/06/18 09:51:01;;;;;;;19.57;12.27;;;;;;;;;;5041568;28;20025;-74
2022/06/18 09:53:28;;;;;;;23.83;11.77;;;;;;;;;;5043699;28;20022;-76
2022/06/18 09:55:59;;;;;;;24.67;13.38;;;;;;;;;;5042025;28;20027;-77
2022/06/18 09:58:32;;;;;;;22.42;11.65;;;;;;;;;;5044137;28;20144;-78
2022/06/18 10:00:58;;;;;;;17.95;11.30;;;;;;;;;;5041310;28;20375;-75
2022/06/18 10:08:59;;;;;;;19.00;10.90;;;;;;;;;;5039581;28;20124;-78
2022/06/18 10:11:25;;;;;;;17.77;11.20;;;;;;;;;;5043362;28;20067;-78
2022/06/18 10:13:59;;;;;;;22.52;11.38;;;;;;;;;;5028536;28;20024;-79
2022/06/18 10:16:42;;;;;;;25.40;13.45;;;;;;;;;;5042980;28;20029;-73
2022/06/18 10:19:15;;;;;;;19.30;12.43;;;;;;;;;;5040947;28;20048;-77
2022/06/18 10:21:53;;;;;;;24.58;11.98;;;;;;;;;;5044218;28;20163;-79
2022/06/18 10:24:22;;;;;;;21.90;12.32;;;;;;;;;;5036621;28;20471;-74
2022/06/18 10:27:01;;;;;;;18.17;11.00;;;;;;;;;;5022401;28;20036;-73
2022/06/18 10:29:35;;;;;;;15.90;10.63;;;;;;;;;;5038826;28;20076;-74
2022/06/18 10:32:24;;;;;;;19.55;10.68;;;;;;;;;;5031130;28;20223;-74
2022/06/18 10:34:52;;;;;;;20.40;9.80;;;;;;;;;;5033436;28;20374;-80
2022/06/18 10:37:17;;;;;;;23.95;9.95;;;;;;;;;;5041228;28;20033;-79
2022/06/18 10:39:43;;;;;;;23.45;9.98;;;;;;;;;;5038427;28;20182;-73
2022/06/18 10:42:14;;;;;;;18.00;9.63;;;;;;;;;;5034861;28;20020;-74
2022/06/18 10:44:58;;;;;;;14.38;8.43;;;;;;;;;;5023904;28;20128;-74
2022/06/18 10:47:29;;;;;;;11.25;6.00;;;;;;;;;;5040530;28;20025;-72
2022/06/18 10:50:08;;;;;;;13.05;6.00;;;;;;;;;;5036675;28;20029;-74
2022/06/18 10:52:34;;;;;;;12.35;5.85;;;;;;;;;;5042202;28;20485;-75
2022/06/18 10:55:13;;;;;;;15.45;6.00;;;;;;;;;;5024442;28;20013;-74
2022/06/18 10:57:38;;;;;;;13.00;6.70;;;;;;;;;;5025547;28;20021;-71
2022/06/18 11:00:24;;;;;;;21.20;7.18;;;;;;;;;;5041185;28;20051;-73
2022/06/18 11:02:50;;;;;;;19.42;7.45;;;;;;;;;;5035520;28;20021;-75
2022/06/18 11:05:22;;;;;;;10.63;7.25;;;;;;;;;;5037382;28;20047;-75
2022/06/18 11:07:49;;;;;;;18.63;7.07;;;;;;;;;;5033163;28;20032;-79
2022/06/18 11:10:29;;;;;;;12.52;7.47;;;;;;;;;;5046883;28;20040;-75
2022/06/18 11:12:56;;;;;;;17.83;8.05;;;;;;;;;;5038498;28;20473;-77
2022/06/18 11:15:24;;;;;;;16.83;7.55;;;;;;;;;;5038565;28;20025;-77
2022/06/18 11:17:49;;;;;;;23.40;7.28;;;;;;;;;;5036073;28;20017;-78
2022/06/18 11:20:14;;;;;;;14.03;7.43;;;;;;;;;;5033812;28;20520;-75
2022/06/18 11:22:40;;;;;;;13.93;7.50;;;;;;;;;;5045655;28;20017;-79
2022/06/18 11:25:20;;;;;;;13.20;7.38;;;;;;;;;;5042317;28;20017;-76
2022/06/18 11:27:46;;;;;;;17.33;7.60;;;;;;;;;;5044174;28;20105;-80
2022/06/18 11:30:24;;;;;;;17.20;7.88;;;;;;;;;;5046527;28;20052;-76
2022/06/18 11:32:50;;;;;;;16.73;7.40;;;;;;;;;;5041940;28;20033;-74
2022/06/18 11:35:20;;;;;;;14.98;8.15;;;;;;;;;;5042824;28;20607;-80
2022/06/18 11:37:54;;;;;;;17.50;8.60;;;;;;;;;;5047774;28;20067;-77
2022/06/18 11:40:20;;;;;;;20.20;8.00;;;;;;;;;;5043878;28;20032;-81
2022/06/18 11:42:50;;;;;;;18.10;6.93;;;;;;;;;;5046806;28;20020;-79
2022/06/18 11:45:25;;;;;;;12.32;7.25;;;;;;;;;;5040255;28;20101;-82
2022/06/18 11:48:08;;;;;;;15.40;7.40;;;;;;;;;;5046961;28;20124;-81
2022/06/18 11:50:45;;;;;;;14.93;6.85;;;;;;;;;;5029483;28;20025;-75
2022/06/18 11:53:10;;;;;;;18.02;7.72;;;;;;;;;;5046232;28;20374;-74
2022/06/18 11:55:37;;;;;;;17.50;7.70;;;;;;;;;;5045155;28;20021;-82
2022/06/18 11:58:05;;;;;;;16.33;7.35;;;;;;;;;;5043836;28;20082;-81
2022/06/18 12:00:37;;;;;;;18.52;8.02;;;;;;;;;;5041966;28;20478;-75
2022/06/18 12:03:20;;;;;;;22.70;8.40;;;;;;;;;;5046684;28;20036;-79
2022/06/18 12:05:47;;;;;;;15.45;7.53;;;;;;;;;;5043900;28;20028;-78
2022/06/18 12:08:16;;;;;;;19.27;7.55;;;;;;;;;;5043294;28;20418;-79
2022/06/18 12:10:48;;;;;;;12.45;6.72;;;;;;;;;;5038321;28;20021;-76
2022/06/18 12:13:32;;;;;;;18.88;7.15;;;;;;;;;;5048042;28;20016;-75
2022/06/18 12:16:06;;;;;;;17.70;6.63;;;;;;;;;;5031351;28;20044;-83
2022/06/18 12:18:57;;;;;;;18.17;6.88;;;;;;;;;;5035447;28;20100;-75
2022/06/18 12:21:32;;;;;;;14.45;6.43;;;;;;;;;;5035532;28;20131;-79
2022/06/18 12:24:06;;;;;;;15.50;6.45;;;;;;;;;;5022156;28;20021;-79
2022/06/18 12:26:37;;;;;;;15.10;6.43;;;;;;;;;;5033471;28;20439;-78
2022/06/18 12:29:02;;;;;;;15.75;7.40;;;;;;;;;;5038367;28;20027;-77
2022/06/18 12:31:34;;;;;;;15.60;6.50;;;;;;;;;;5037497;28;20024;-80
2022/06/18 12:34:22;;;;;;;17.25;7.15;;;;;;;;;;5040137;28;20497;-80
2022/06/18 12:36:50;;;;;;;18.83;7.03;;;;;;;;;;5036430;28;20090;-76
2022/06/18 12:39:21;;;;;;;14.45;6.78;;;;;;;;;;5044819;28;20029;-73
2022/06/18 12:42:06;;;;;;;19.40;7.05;;;;;;;;;;5035377;28;20032;-75
2022/06/18 12:44:43;;;;;;;18.33;6.50;;;;;;;;;;5040916;28;20021;-76
2022/06/18 12:47:34;;;;;;;15.93;6.03;;;;;;;;;;5035427;28;20100;-76
2022/06/18 12:50:04;;;;;;;14.80;6.68;;;;;;;;;;5038938;28;20055;-76
2022/06/18 12:52:52;;;;;;;17.38;7.05;;;;;;;;;;5034271;28;20024;-75
2022/06/18 12:55:23;;;;;;;20.20;6.90;;;;;;;;;;5038365;28;20056;-75
2022/06/18 12:57:54;;;;;;;16.60;7.38;;;;;;;;;;5043736;28;20066;-76
2022/06/18 13:00:46;;;;;;;17.98;7.13;;;;;;;;;;5046873;28;20025;-74
2022/06/18 13:03:23;;;;;;;23.58;7.07;;;;;;;;;;5030175;28;20029;-75
2022/06/18 13:05:50;;;;;;;21.17;6.95;;;;;;;;;;5041136;28;20063;-74
2022/06/18 13:08:15;;;;;;;17.10;8.18;;;;;;;;;;5039674;28;20044;-73
2022/06/18 13:11:00;;;;;;;14.43;7.50;;;;;;;;;;5038826;28;20051;-76
2022/06/18 13:13:36;;;;;;;16.98;6.85;;;;;;;;;;5039961;28;20096;-76
2022/06/18 13:16:09;;;;;;;22.80;7.97;;;;;;;;;;5039011;28;20025;-73
2022/06/18 13:18:34;;;;;;;18.48;7.07;;;;;;;;;;5049276;28;20120;-76
2022/06/18 13:21:00;;;;;;;14.63;6.70;;;;;;;;;;5046932;28;20041;-73
2022/06/18 13:29:21;;;;;;;13.20;7.40;;;;;;;;;;5045133;28;20036;-75
2022/06/18 13:31:52;;;;;;;14.93;6.68;;;;;;;;;;5042304;28;20036;-77
2022/06/18 13:34:23;;;;;;;17.70;7.18;;;;;;;;;;5046845;28;20107;-75
2022/06/18 13:36:48;;;;;;;16.85;7.93;;;;;;;;;;5047461;28;20489;-76
2022/06/18 13:39:24;;;;;;;15.82;7.93;;;;;;;;;;5028837;28;20362;-76
2022/06/18 13:41:49;;;;;;;18.23;7.18;;;;;;;;;;5041334;28;20017;-79
2022/06/18 13:44:23;;;;;;;14.83;7.47;;;;;;;;;;5045771;28;20021;-79
2022/06/18 13:46:51;;;;;;;13.90;6.97;;;;;;;;;;5046166;28;20030;-78
2022/06/18 13:49:17;;;;;;;15.10;8.20;;;;;;;;;;5048859;28;20100;-78
2022/06/18 13:51:43;;;;;;;21.90;7.73;;;;;;;;;;5041666;28;20140;-78
2022/06/18 13:54:10;;;;;;;15.93;8.45;;;;;;;;;;5048471;28;20102;-78
2022/06/18 13:56:36;;;;;;;15.20;7.93;;;;;;;;;;5047615;28;20112;-78
2022/06/18 13:59:02;;;;;;;20.98;7.10;;;;;;;;;;5042391;28;20021;-78
2022/06/18 14:01:28;;;;;;;22.92;7.25;;;;;;;;;;5042700;28;20036;-77
2022/06/18 14:03:57;;;;;;;14.77;7.78;;;;;;;;;;5047054;28;20013;-76
2022/06/18 14:06:23;;;;;;;18.05;7.43;;;;;;;;;;5048985;28;20032;-80
2022/06/18 14:08:50;;;;;;;17.90;7.60;;;;;;;;;;5049702;28;20033;-82
2022/06/18 14:11:54;;;;;;;13.05;7.65;;;;;;;;;;5043474;28;20478;-81
2022/06/18 14:14:30;;;;;;;29.90;7.78;;;;;;;;;;4976024;28;20054;-82
2022/06/18 14:17:09;;;;;;;14.98;6.95;;;;;;;;;;4974613;28;20439;-80
2022/06/18 14:19:42;;;;;;;25.83;8.02;;;;;;;;;;5018670;28;20084;-79
2022/06/18 14:22:13;;;;;;;22.33;7.38;;;;;;;;;;5046069;28;20877;-78
2022/06/18 14:24:38;;;;;;;27.88;7.70;;;;;;;;;;5048439;28;20017;-77
2022/06/18 14:27:03;;;;;;;13.80;6.72;;;;;;;;;;5044742;28;20025;-79
2022/06/18 14:29:37;;;;;;;14.80;6.57;;;;;;;;;;5045201;28;20092;-80
2022/06/18 14:32:08;;;;;;;18.25;6.72;;;;;;;;;;5043093;28;20266;-79
2022/06/18 14:34:52;;;;;;;22.38;7.05;;;;;;;;;;5049957;28;20100;-77
2022/06/18 14:37:18;;;;;;;15.27;6.72;;;;;;;;;;5027653;28;20026;-79
2022/06/18 14:39:51;;;;;;;22.67;6.82;;;;;;;;;;5048833;28;20574;-78
2022/06/18 14:42:36;;;;;;;16.92;7.25;;;;;;;;;;5047249;28;20024;-76
2022/06/18 14:45:14;;;;;;;18.17;6.45;;;;;;;;;;5046206;28;20028;-77
2022/06/18 14:47:49;;;;;;;16.60;7.75;;;;;;;;;;5044463;28;20059;-75
2022/06/18 14:50:29;;;;;;;14.70;7.60;;;;;;;;;;5041540;28;20040;-77
2022/06/18 14:53:13;;;;;;;13.63;7.28;;;;;;;;;;5047036;28;20064;-76
2022/06/18 14:55:41;;;;;;;17.88;8.07;;;;;;;;;;5047049;28;20016;-76
2022/06/18 14:58:06;;;;;;;27.35;7.88;;;;;;;;;;5048476;28;20363;-76
2022/06/18 15:00:31;;;;;;;17.42;7.35;;;;;;;;;;5044505;28;20370;-75